Terminal Aerodrome Forecast
Issued by NWS Charleston, WV

Current Version | Previous Version | Text Only | Print | Product List | Glossary Off
Versions: 1 2 3 4 5 6 7 8 9 10 11 12 13 14 15 16 17 18 19 20 21 22 23

000
FTUS41 KRLX 241836 AAA
TAFCRW
TAF AMD
KCRW 241836Z 2419/2518 12008G18KT 6SM -TSRA SCT040CB BKN050 OVC090
      TEMPO 2419/2421 VRB15G25KT 2SM TSRA OVC030CB
     FM242100 15011G18KT 5SM SHRA VCTS OVC029CB
     FM250000 15011G17KT P6SM OVC026
     FM250600 20007KT P6SM OVC016
     FM251600 21009KT P6SM BKN027=

USA.gov is the U.S. government's official web portal to all federal, state and local government web resources and services.